Impacts METAR Board
IDs:

KPBI - Palm Beach Intl, FL, US

Updated at: 2100 UTC 21 Sep 2021
Potential Impact None Slight Moderate High
Time 21/09Z 21/10Z 21/11Z 21/12Z 21/13Z 21/14Z 21/15Z 21/16Z 21/17Z 21/18Z 21/19Z 21/20Z 21/21Z
Temp80 81 79 79 77 77 77 78 80 80 80 82 82
Dewpt77 77 77 77 75 75 74 75 76 75 76 78 76
Altim29.97 29.98 30.00 30.02 30.04 30.06 30.06 30.07 30.05 30.03 30.03 30.02 30.02
VIS10 10 10 7 10 5 10 10 10 10 10 10 10
CIG180 250 45 17 24 24 29 55 50 26 43 60 160
CoverBKNBKNBKNBKNBKNBKNBKNBKNBKNBKNBKNBKNBKN
FltCatVFRVFRVFRMVFRMVFRMVFRMVFRVFRVFRMVFRVFRVFRVFR
WX------TSRA-RATSRA BR-RA-RA-RA-RA-RA----
WDir6003302000140110340020302050
WSpd3 0 7 14 0 10 4 3 0 3 5 7 7
WGst-- -- -- 18 -- -- -- -- -- -- -- -- --
Raw hourly METARs
KPBI 210853Z 06003KT 10SM FEW025 BKN180 27/25 A2997 RMK AO2 SLP150 60000 T02670250 56012
KPBI 210953Z 00000KT 10SM FEW025 FEW095 BKN250 27/25 A2998 RMK AO2 SLP150 T02720250
KPBI 211053Z 33007KT 10SM SCT022 BKN045 BKN250 26/25 A3000 RMK AO2 SLP157 T02610250
KPBI 211153Z 20014G18KT 7SM R10L/3000V5500FT TSRA BKN017 BKN027CB BKN045 26/25 A3002 RMK AO2 RAB43 TSB42 SLP163 OCNL LTGICCG NW TS NW MOV NW P0014 60014 70075 T02610250 10272 20244 53014 $
KPBI 211305Z 00000KT 10SM -RA BKN024CB BKN050 BKN090 25/24 A3004 RMK AO2 LTG DSNT S TSE04 CB S MOV NW CB DSNT S P0001 T02500239 $
KPBI 211353Z 14010KT 5SM R10L/4500VP6000FT TSRA BR FEW015 BKN024CB BKN039 25/24 A3006 RMK AO2 TSE04B46 SLP178 OCNL LTGICCG SE TS SE MOV N CB DSNT N P0020 T02500239 $
KPBI 211453Z 11004KT 10SM -RA BKN029 BKN065 BKN120 25/23 A3006 RMK AO2 TSE24 SLP178 CB DSNT N E P0019 60076 T02500233 51015 $
KPBI 211553Z 34003KT 10SM -RA SCT030 BKN055 BKN070 26/24 A3007 RMK AO2 LTG DSNT E SLP181 CB DSNT NE-SE P0002 T02560239 $
KPBI 211653Z 00000KT 10SM -RA SCT032 BKN050 BKN100 27/24 A3005 RMK AO2 LTG DSNT E SLP176 CB DSNT E P0001 T02670244 $
KPBI 211753Z 02003KT 10SM -RA BKN026 BKN035 BKN050 27/24 A3003 RMK AO2 SLP170 CB DSNT NE SE P0002 60081 T02670239 10267 20244 58008 $
KPBI 211853Z 03005KT 10SM -RA SCT022 BKN043 BKN080 27/24 A3003 RMK AO2 SLP168 CB DSNT NE E P0003 T02670244 $
KPBI 211953Z 02007KT 10SM SCT013 SCT025 BKN060 28/26 A3002 RMK AO2 RAE35 SLP165 CB DSNT NE S-W P0000 T02780256 $
KPBI 212053Z 05007KT 10SM SCT020 SCT070 BKN160 28/24 A3002 RMK AO2 SLP166 CB DSNT NE SW-W NW 60003 T02780244 55003 $



Page loaded:  21:11 UTC  |   02:11 PM Pacific  |   03:11 PM Mountain  |   04:11 PM Central  |   05:11 PM Eastern

 

ADVISORIES

FORECASTS

FORECASTS

OBSERVATIONS

USER TOOLS

ABOUT US